sensor_id;sensor_type;location;lat;lon;timestamp;pressure;altitude;pressure_sealevel;temperature;humidity
11124;BME280;5616;42.692;23.312;2022-12-29T00:01:59;96069.16;;;6.86;81.96
11124;BME280;5616;42.692;23.312;2022-12-29T00:04:26;96065.09;;;6.93;83.30
11124;BME280;5616;42.692;23.312;2022-12-29T00:06:54;96068.75;;;7.00;82.89
11124;BME280;5616;42.692;23.312;2022-12-29T00:09:22;96062.28;;;7.06;83.09
11124;BME280;5616;42.692;23.312;2022-12-29T00:11:48;96071.31;;;7.10;82.34
11124;BME280;5616;42.692;23.312;2022-12-29T00:14:15;96072.16;;;7.10;82.98
11124;BME280;5616;42.692;23.312;2022-12-29T00:17:00;96073.75;;;7.11;83.09
11124;BME280;5616;42.692;23.312;2022-12-29T00:19:26;96067.00;;;7.10;82.79
11124;BME280;5616;42.692;23.312;2022-12-29T00:22:13;96069.56;;;7.10;82.43
11124;BME280;5616;42.692;23.312;2022-12-29T00:24:58;96074.28;;;7.24;82.58
11124;BME280;5616;42.692;23.312;2022-12-29T00:27:42;96077.66;;;7.25;82.02
11124;BME280;5616;42.692;23.312;2022-12-29T00:30:26;96088.88;;;7.14;82.38
11124;BME280;5616;42.692;23.312;2022-12-29T00:33:12;96075.91;;;7.06;82.39
11124;BME280;5616;42.692;23.312;2022-12-29T00:35:59;96087.56;;;7.10;82.69
11124;BME280;5616;42.692;23.312;2022-12-29T00:38:31;96089.97;;;7.12;82.77
11124;BME280;5616;42.692;23.312;2022-12-29T00:41:15;96087.41;;;7.12;82.63
11124;BME280;5616;42.692;23.312;2022-12-29T00:44:00;96093.38;;;7.03;82.51
11124;BME280;5616;42.692;23.312;2022-12-29T00:46:33;96089.03;;;6.94;83.27
11124;BME280;5616;42.692;23.312;2022-12-29T00:49:01;96096.59;;;6.95;83.09
11124;BME280;5616;42.692;23.312;2022-12-29T00:51:46;96099.84;;;6.97;83.65
11124;BME280;5616;42.692;23.312;2022-12-29T00:54:15;96100.25;;;7.02;83.39
11124;BME280;5616;42.692;23.312;2022-12-29T00:56:42;96091.72;;;7.02;83.53
11124;BME280;5616;42.692;23.312;2022-12-29T00:59:10;96091.59;;;7.03;82.60
11124;BME280;5616;42.692;23.312;2022-12-29T01:01:37;96097.53;;;7.04;82.32
11124;BME280;5616;42.692;23.312;2022-12-29T01:04:04;96094.84;;;7.05;81.98
11124;BME280;5616;42.692;23.312;2022-12-29T01:06:32;96096.44;;;7.06;82.58
11124;BME280;5616;42.692;23.312;2022-12-29T01:08:59;96093.78;;;7.08;82.28
11124;BME280;5616;42.692;23.312;2022-12-29T01:11:45;96091.88;;;7.10;82.47
11124;BME280;5616;42.692;23.312;2022-12-29T01:14:12;96088.63;;;7.08;81.47
11124;BME280;5616;42.692;23.312;2022-12-29T01:16:39;96083.22;;;7.01;82.86
11124;BME280;5616;42.692;23.312;2022-12-29T01:19:06;96084.28;;;6.99;82.26
11124;BME280;5616;42.692;23.312;2022-12-29T01:21:33;96078.06;;;6.82;82.84
11124;BME280;5616;42.692;23.312;2022-12-29T01:23:59;96083.63;;;6.87;83.04
11124;BME280;5616;42.692;23.312;2022-12-29T01:26:26;96077.25;;;6.91;81.90
11124;BME280;5616;42.692;23.312;2022-12-29T01:28:54;96076.59;;;6.89;82.18
11124;BME280;5616;42.692;23.312;2022-12-29T01:31:22;96072.13;;;6.91;82.34
11124;BME280;5616;42.692;23.312;2022-12-29T01:33:49;96070.94;;;6.95;82.19
11124;BME280;5616;42.692;23.312;2022-12-29T01:36:17;96067.41;;;6.87;82.54
11124;BME280;5616;42.692;23.312;2022-12-29T01:38:44;96070.09;;;6.66;82.24
11124;BME280;5616;42.692;23.312;2022-12-29T01:41:13;96063.16;;;6.66;82.42
11124;BME280;5616;42.692;23.312;2022-12-29T01:43:41;96061.81;;;6.62;82.56
11124;BME280;5616;42.692;23.312;2022-12-29T01:46:18;96060.59;;;6.57;83.17
11124;BME280;5616;42.692;23.312;2022-12-29T01:48:51;96051.31;;;6.65;82.37
11124;BME280;5616;42.692;23.312;2022-12-29T01:51:21;96060.75;;;6.65;83.16
11124;BME280;5616;42.692;23.312;2022-12-29T01:53:49;96049.81;;;6.63;83.02
11124;BME280;5616;42.692;23.312;2022-12-29T01:56:17;96055.63;;;6.65;82.88
11124;BME280;5616;42.692;23.312;2022-12-29T01:58:49;96051.03;;;6.68;82.73
11124;BME280;5616;42.692;23.312;2022-12-29T02:01:19;96051.03;;;6.68;83.32
11124;BME280;5616;42.692;23.312;2022-12-29T02:03:48;96049.66;;;6.64;82.42
11124;BME280;5616;42.692;23.312;2022-12-29T02:06:18;96048.06;;;6.63;82.98
11124;BME280;5616;42.692;23.312;2022-12-29T02:08:46;96043.31;;;6.59;83.85
11124;BME280;5616;42.692;23.312;2022-12-29T02:11:13;96043.13;;;6.32;84.43
11124;BME280;5616;42.692;23.312;2022-12-29T02:13:42;96042.06;;;6.44;83.21
11124;BME280;5616;42.692;23.312;2022-12-29T02:16:20;96038.84;;;6.42;82.91
11124;BME280;5616;42.692;23.312;2022-12-29T02:19:06;96043.72;;;6.45;82.81
11124;BME280;5616;42.692;23.312;2022-12-29T02:22:00;96041.50;;;6.31;82.92
11124;BME280;5616;42.692;23.312;2022-12-29T02:24:56;96045.00;;;6.30;83.46
11124;BME280;5616;42.692;23.312;2022-12-29T02:28:08;96040.69;;;6.30;82.89
11124;BME280;5616;42.692;23.312;2022-12-29T02:30:49;96037.44;;;6.19;83.44
11124;BME280;5616;42.692;23.312;2022-12-29T02:33:32;96036.06;;;6.14;83.81
11124;BME280;5616;42.692;23.312;2022-12-29T02:36:06;96037.94;;;6.12;83.83
11124;BME280;5616;42.692;23.312;2022-12-29T02:38:45;96043.50;;;6.18;83.43
11124;BME280;5616;42.692;23.312;2022-12-29T02:41:20;96048.38;;;6.30;83.81
11124;BME280;5616;42.692;23.312;2022-12-29T02:43:52;96039.91;;;6.39;84.79
11124;BME280;5616;42.692;23.312;2022-12-29T02:46:26;96041.00;;;6.46;84.24
11124;BME280;5616;42.692;23.312;2022-12-29T02:49:01;96046.94;;;6.47;83.94
11124;BME280;5616;42.692;23.312;2022-12-29T02:51:34;96039.81;;;6.50;83.93
11124;BME280;5616;42.692;23.312;2022-12-29T02:54:03;96037.75;;;6.54;82.58
11124;BME280;5616;42.692;23.312;2022-12-29T02:56:47;96040.59;;;6.51;82.81
11124;BME280;5616;42.692;23.312;2022-12-29T02:59:16;96030.72;;;6.46;82.84
11124;BME280;5616;42.692;23.312;2022-12-29T03:02:07;96031.56;;;6.47;82.67
11124;BME280;5616;42.692;23.312;2022-12-29T03:05:03;96029.81;;;6.47;83.36
11124;BME280;5616;42.692;23.312;2022-12-29T03:07:37;96025.19;;;6.51;82.15
11124;BME280;5616;42.692;23.312;2022-12-29T03:10:15;96026.81;;;6.52;81.92
11124;BME280;5616;42.692;23.312;2022-12-29T03:12:48;96022.50;;;6.52;82.00
11124;BME280;5616;42.692;23.312;2022-12-29T03:15:43;96022.38;;;6.54;82.88
11124;BME280;5616;42.692;23.312;2022-12-29T03:18:35;96016.00;;;6.48;82.74
11124;BME280;5616;42.692;23.312;2022-12-29T03:21:09;96016.56;;;6.52;82.95
11124;BME280;5616;42.692;23.312;2022-12-29T03:23:39;96017.25;;;6.54;82.48
11124;BME280;5616;42.692;23.312;2022-12-29T03:26:10;96016.41;;;6.53;82.05
11124;BME280;5616;42.692;23.312;2022-12-29T03:28:40;96008.88;;;6.52;82.39
11124;BME280;5616;42.692;23.312;2022-12-29T03:31:08;96009.81;;;6.41;82.43
11124;BME280;5616;42.692;23.312;2022-12-29T03:33:41;96020.72;;;6.34;83.73
11124;BME280;5616;42.692;23.312;2022-12-29T03:36:12;96021.25;;;6.28;83.33
11124;BME280;5616;42.692;23.312;2022-12-29T03:38:47;96022.56;;;6.12;83.77
11124;BME280;5616;42.692;23.312;2022-12-29T03:41:18;96016.16;;;5.97;84.22
11124;BME280;5616;42.692;23.312;2022-12-29T03:43:47;96012.22;;;5.93;84.97
11124;BME280;5616;42.692;23.312;2022-12-29T03:46:14;96020.09;;;6.01;84.33
11124;BME280;5616;42.692;23.312;2022-12-29T03:48:42;96025.78;;;6.05;84.15
11124;BME280;5616;42.692;23.312;2022-12-29T03:51:09;96025.47;;;5.98;84.33
11124;BME280;5616;42.692;23.312;2022-12-29T03:53:36;96029.16;;;6.05;84.39
11124;BME280;5616;42.692;23.312;2022-12-29T03:56:03;96034.66;;;6.01;84.62
11124;BME280;5616;42.692;23.312;2022-12-29T03:58:32;96043.56;;;5.97;84.32
11124;BME280;5616;42.692;23.312;2022-12-29T04:01:11;96039.63;;;5.72;84.48
11124;BME280;5616;42.692;23.312;2022-12-29T04:03:38;96042.75;;;5.76;84.83
11124;BME280;5616;42.692;23.312;2022-12-29T04:06:06;96052.19;;;5.75;84.67
11124;BME280;5616;42.692;23.312;2022-12-29T04:08:58;96041.56;;;5.59;85.20
11124;BME280;5616;42.692;23.312;2022-12-29T04:11:25;96041.63;;;5.48;86.21
11124;BME280;5616;42.692;23.312;2022-12-29T04:13:52;96044.78;;;5.51;86.26
11124;BME280;5616;42.692;23.312;2022-12-29T04:16:22;96040.84;;;5.47;86.74
11124;BME280;5616;42.692;23.312;2022-12-29T04:18:49;96042.47;;;5.48;86.74
11124;BME280;5616;42.692;23.312;2022-12-29T04:21:18;96047.91;;;5.55;86.25
11124;BME280;5616;42.692;23.312;2022-12-29T04:23:45;96042.00;;;5.64;85.13
11124;BME280;5616;42.692;23.312;2022-12-29T04:26:12;96047.91;;;5.55;85.35
11124;BME280;5616;42.692;23.312;2022-12-29T04:28:50;96048.22;;;5.41;86.35
11124;BME280;5616;42.692;23.312;2022-12-29T04:31:38;96048.47;;;5.38;86.90
11124;BME280;5616;42.692;23.312;2022-12-29T04:34:06;96047.09;;;5.34;87.26
11124;BME280;5616;42.692;23.312;2022-12-29T04:36:34;96060.84;;;5.33;87.27
11124;BME280;5616;42.692;23.312;2022-12-29T04:39:01;96058.50;;;5.30;87.23
11124;BME280;5616;42.692;23.312;2022-12-29T04:41:31;96060.16;;;5.31;87.56
11124;BME280;5616;42.692;23.312;2022-12-29T04:43:59;96061.69;;;5.22;87.91
11124;BME280;5616;42.692;23.312;2022-12-29T04:46:52;96062.53;;;5.23;87.52
11124;BME280;5616;42.692;23.312;2022-12-29T04:49:42;96070.19;;;5.23;87.84
11124;BME280;5616;42.692;23.312;2022-12-29T04:52:34;96075.94;;;5.15;87.61
11124;BME280;5616;42.692;23.312;2022-12-29T04:55:02;96077.69;;;5.15;88.48
11124;BME280;5616;42.692;23.312;2022-12-29T04:57:29;96079.59;;;5.02;88.17
11124;BME280;5616;42.692;23.312;2022-12-29T04:59:58;96079.81;;;5.10;88.47
11124;BME280;5616;42.692;23.312;2022-12-29T05:02:26;96078.38;;;5.17;88.14
11124;BME280;5616;42.692;23.312;2022-12-29T05:04:54;96075.81;;;5.17;88.35
11124;BME280;5616;42.692;23.312;2022-12-29T05:07:21;96081.69;;;5.28;87.75
11124;BME280;5616;42.692;23.312;2022-12-29T05:09:49;96082.28;;;5.32;87.44
11124;BME280;5616;42.692;23.312;2022-12-29T05:12:16;96080.78;;;5.29;87.40
11124;BME280;5616;42.692;23.312;2022-12-29T05:14:52;96076.81;;;5.25;87.57
11124;BME280;5616;42.692;23.312;2022-12-29T05:20:42;96083.34;;;5.29;88.21
11124;BME280;5616;42.692;23.312;2022-12-29T05:23:09;96076.78;;;5.36;87.48
11124;BME280;5616;42.692;23.312;2022-12-29T05:25:38;96080.38;;;5.34;87.70
11124;BME280;5616;42.692;23.312;2022-12-29T05:28:14;96080.19;;;5.46;87.34
11124;BME280;5616;42.692;23.312;2022-12-29T05:30:49;96074.69;;;5.51;86.65
11124;BME280;5616;42.692;23.312;2022-12-29T05:33:17;96079.13;;;5.49;86.96
11124;BME280;5616;42.692;23.312;2022-12-29T05:35:45;96078.25;;;5.60;86.94
11124;BME280;5616;42.692;23.312;2022-12-29T05:38:12;96081.41;;;5.63;86.28
11124;BME280;5616;42.692;23.312;2022-12-29T05:40:41;96087.63;;;5.70;85.59
11124;BME280;5616;42.692;23.312;2022-12-29T05:43:20;96083.50;;;5.79;85.12
11124;BME280;5616;42.692;23.312;2022-12-29T05:46:07;96081.28;;;5.74;85.19
11124;BME280;5616;42.692;23.312;2022-12-29T05:48:46;96082.06;;;5.65;85.93
11124;BME280;5616;42.692;23.312;2022-12-29T05:55:04;96087.94;;;5.56;87.34
11124;BME280;5616;42.692;23.312;2022-12-29T05:57:34;96085.13;;;5.59;87.97
11124;BME280;5616;42.692;23.312;2022-12-29T06:00:13;96093.00;;;5.67;87.63
11124;BME280;5616;42.692;23.312;2022-12-29T06:02:40;96100.25;;;5.62;87.71
11124;BME280;5616;42.692;23.312;2022-12-29T06:05:08;96089.94;;;5.52;88.46
11124;BME280;5616;42.692;23.312;2022-12-29T06:07:36;96100.16;;;5.64;88.64
11124;BME280;5616;42.692;23.312;2022-12-29T06:10:04;96098.19;;;5.77;88.05
11124;BME280;5616;42.692;23.312;2022-12-29T06:12:40;96098.06;;;5.78;88.82
11124;BME280;5616;42.692;23.312;2022-12-29T06:15:07;96100.94;;;5.85;87.57
11124;BME280;5616;42.692;23.312;2022-12-29T06:17:34;96101.53;;;5.98;86.71
11124;BME280;5616;42.692;23.312;2022-12-29T06:20:01;96101.19;;;5.82;87.66
11124;BME280;5616;42.692;23.312;2022-12-29T06:22:28;96090.88;;;5.72;87.23
11124;BME280;5616;42.692;23.312;2022-12-29T06:24:55;96095.50;;;5.78;87.09
11124;BME280;5616;42.692;23.312;2022-12-29T06:27:22;96103.81;;;5.91;87.17
11124;BME280;5616;42.692;23.312;2022-12-29T06:29:52;96095.50;;;5.99;87.18
11124;BME280;5616;42.692;23.312;2022-12-29T06:32:19;96101.25;;;5.91;86.95
11124;BME280;5616;42.692;23.312;2022-12-29T06:34:50;96098.94;;;5.88;86.99
11124;BME280;5616;42.692;23.312;2022-12-29T06:37:17;96099.91;;;5.87;87.16
11124;BME280;5616;42.692;23.312;2022-12-29T06:39:45;96107.69;;;5.86;87.23
11124;BME280;5616;42.692;23.312;2022-12-29T06:42:13;96106.13;;;5.94;87.21
11124;BME280;5616;42.692;23.312;2022-12-29T06:45:12;96113.44;;;5.99;87.23
11124;BME280;5616;42.692;23.312;2022-12-29T06:47:39;96109.13;;;5.99;86.68
11124;BME280;5616;42.692;23.312;2022-12-29T06:50:06;96088.91;;;6.06;86.43
11124;BME280;5616;42.692;23.312;2022-12-29T06:52:33;96109.50;;;6.25;86.99
11124;BME280;5616;42.692;23.312;2022-12-29T06:55:00;96110.50;;;6.34;85.97
11124;BME280;5616;42.692;23.312;2022-12-29T06:57:26;96105.38;;;6.43;84.86
11124;BME280;5616;42.692;23.312;2022-12-29T06:59:53;96110.00;;;6.49;84.68
11124;BME280;5616;42.692;23.312;2022-12-29T07:02:22;96108.28;;;6.59;84.50
11124;BME280;5616;42.692;23.312;2022-12-29T07:04:50;96114.38;;;6.68;83.38
11124;BME280;5616;42.692;23.312;2022-12-29T07:07:17;96118.03;;;6.75;81.91
11124;BME280;5616;42.692;23.312;2022-12-29T07:09:44;96113.56;;;6.77;82.22
11124;BME280;5616;42.692;23.312;2022-12-29T07:12:11;96120.75;;;6.73;81.88
11124;BME280;5616;42.692;23.312;2022-12-29T07:14:38;96115.72;;;6.72;81.38
11124;BME280;5616;42.692;23.312;2022-12-29T07:17:05;96113.06;;;6.83;81.14
11124;BME280;5616;42.692;23.312;2022-12-29T07:19:33;96112.94;;;6.94;80.17
11124;BME280;5616;42.692;23.312;2022-12-29T07:22:00;96106.47;;;7.00;79.99
11124;BME280;5616;42.692;23.312;2022-12-29T07:24:27;96112.41;;;7.10;78.69
11124;BME280;5616;42.692;23.312;2022-12-29T07:26:55;96104.84;;;7.18;79.00
11124;BME280;5616;42.692;23.312;2022-12-29T07:29:22;96114.72;;;7.22;79.73
11124;BME280;5616;42.692;23.312;2022-12-29T07:31:48;96118.78;;;7.25;78.73
11124;BME280;5616;42.692;23.312;2022-12-29T07:34:15;96115.13;;;7.18;79.02
11124;BME280;5616;42.692;23.312;2022-12-29T07:36:43;96108.34;;;7.17;78.44
11124;BME280;5616;42.692;23.312;2022-12-29T07:39:10;96112.94;;;7.32;77.91
11124;BME280;5616;42.692;23.312;2022-12-29T07:41:38;96111.63;;;7.48;76.56
11124;BME280;5616;42.692;23.312;2022-12-29T07:44:09;96115.09;;;7.66;76.66
11124;BME280;5616;42.692;23.312;2022-12-29T07:46:54;96112.78;;;7.82;76.08
11124;BME280;5616;42.692;23.312;2022-12-29T07:49:22;96118.31;;;7.87;75.93
11124;BME280;5616;42.692;23.312;2022-12-29T07:51:50;96122.06;;;8.02;75.49
11124;BME280;5616;42.692;23.312;2022-12-29T07:54:17;96114.50;;;7.91;75.64
11124;BME280;5616;42.692;23.312;2022-12-29T07:56:44;96119.81;;;7.89;76.56
11124;BME280;5616;42.692;23.312;2022-12-29T07:59:11;96122.34;;;7.99;75.57
11124;BME280;5616;42.692;23.312;2022-12-29T08:01:38;96114.47;;;8.10;75.21
11124;BME280;5616;42.692;23.312;2022-12-29T08:04:05;96126.88;;;8.24;75.25
11124;BME280;5616;42.692;23.312;2022-12-29T08:06:32;96122.41;;;8.26;74.47
11124;BME280;5616;42.692;23.312;2022-12-29T08:09:00;96136.53;;;8.13;75.00
11124;BME280;5616;42.692;23.312;2022-12-29T08:11:27;96129.19;;;8.18;73.94
11124;BME280;5616;42.692;23.312;2022-12-29T08:13:54;96129.25;;;7.98;75.18
11124;BME280;5616;42.692;23.312;2022-12-29T08:16:21;96127.22;;;8.02;74.82
11124;BME280;5616;42.692;23.312;2022-12-29T08:18:47;96120.09;;;8.23;75.50
11124;BME280;5616;42.692;23.312;2022-12-29T08:21:14;96124.94;;;8.45;73.97
11124;BME280;5616;42.692;23.312;2022-12-29T08:23:41;96114.97;;;8.60;73.66
11124;BME280;5616;42.692;23.312;2022-12-29T08:26:09;96121.06;;;8.59;72.62
11124;BME280;5616;42.692;23.312;2022-12-29T08:28:36;96107.59;;;8.47;73.54
11124;BME280;5616;42.692;23.312;2022-12-29T08:31:03;96117.38;;;8.61;72.84
11124;BME280;5616;42.692;23.312;2022-12-29T08:33:30;96115.72;;;8.70;72.83
11124;BME280;5616;42.692;23.312;2022-12-29T08:35:59;96117.66;;;8.86;72.04
11124;BME280;5616;42.692;23.312;2022-12-29T08:38:26;96119.06;;;8.80;72.74
11124;BME280;5616;42.692;23.312;2022-12-29T08:40:53;96111.06;;;9.01;73.15
11124;BME280;5616;42.692;23.312;2022-12-29T08:43:21;96110.72;;;9.13;71.74
11124;BME280;5616;42.692;23.312;2022-12-29T08:45:48;96116.16;;;9.28;70.62
11124;BME280;5616;42.692;23.312;2022-12-29T08:48:15;96115.94;;;9.39;70.61
11124;BME280;5616;42.692;23.312;2022-12-29T08:50:45;96122.06;;;9.56;70.13
11124;BME280;5616;42.692;23.312;2022-12-29T08:53:12;96120.34;;;9.64;69.24
11124;BME280;5616;42.692;23.312;2022-12-29T08:55:39;96112.38;;;9.75;68.83
11124;BME280;5616;42.692;23.312;2022-12-29T08:58:06;96109.78;;;9.75;68.25
11124;BME280;5616;42.692;23.312;2022-12-29T09:00:36;96111.22;;;9.52;69.90
11124;BME280;5616;42.692;23.312;2022-12-29T09:03:03;96098.41;;;9.60;69.52
11124;BME280;5616;42.692;23.312;2022-12-29T09:05:30;96100.00;;;9.79;69.21
11124;BME280;5616;42.692;23.312;2022-12-29T09:07:56;96102.00;;;9.93;69.18
11124;BME280;5616;42.692;23.312;2022-12-29T09:10:23;96096.00;;;9.67;69.73
11124;BME280;5616;42.692;23.312;2022-12-29T09:12:50;96095.88;;;9.68;68.71
11124;BME280;5616;42.692;23.312;2022-12-29T09:15:17;96095.38;;;9.65;68.72
11124;BME280;5616;42.692;23.312;2022-12-29T09:17:45;96095.53;;;9.63;69.38
11124;BME280;5616;42.692;23.312;2022-12-29T09:20:13;96084.72;;;9.42;71.03
11124;BME280;5616;42.692;23.312;2022-12-29T09:22:40;96084.84;;;9.41;70.58
11124;BME280;5616;42.692;23.312;2022-12-29T09:25:08;96072.50;;;9.44;70.93
11124;BME280;5616;42.692;23.312;2022-12-29T09:27:35;96077.81;;;9.43;71.49
11124;BME280;5616;42.692;23.312;2022-12-29T09:30:03;96090.28;;;9.73;70.48
11124;BME280;5616;42.692;23.312;2022-12-29T09:32:31;96082.41;;;9.74;70.49
11124;BME280;5616;42.692;23.312;2022-12-29T09:34:59;96081.94;;;9.79;70.17
11124;BME280;5616;42.692;23.312;2022-12-29T09:37:26;96077.66;;;9.96;69.92
11124;BME280;5616;42.692;23.312;2022-12-29T09:39:53;96080.56;;;9.93;69.77
11124;BME280;5616;42.692;23.312;2022-12-29T09:42:26;96072.09;;;9.82;69.87
11124;BME280;5616;42.692;23.312;2022-12-29T09:45:03;96065.44;;;9.98;69.43
11124;BME280;5616;42.692;23.312;2022-12-29T09:47:32;96061.88;;;10.16;68.34
11124;BME280;5616;42.692;23.312;2022-12-29T09:50:03;96050.78;;;10.24;68.31
11124;BME280;5616;42.692;23.312;2022-12-29T09:52:34;96059.63;;;10.21;68.70
11124;BME280;5616;42.692;23.312;2022-12-29T09:55:04;96050.34;;;10.36;68.88
11124;BME280;5616;42.692;23.312;2022-12-29T09:57:38;96051.69;;;10.15;68.81
11124;BME280;5616;42.692;23.312;2022-12-29T10:00:12;96043.19;;;10.30;68.81
11124;BME280;5616;42.692;23.312;2022-12-29T10:02:41;96042.38;;;9.96;68.87
11124;BME280;5616;42.692;23.312;2022-12-29T10:05:23;96043.19;;;9.71;69.60
11124;BME280;5616;42.692;23.312;2022-12-29T10:08:04;96046.06;;;9.94;69.15
11124;BME280;5616;42.692;23.312;2022-12-29T10:10:38;96034.78;;;9.95;68.68
11124;BME280;5616;42.692;23.312;2022-12-29T10:13:19;96038.53;;;10.00;69.89
11124;BME280;5616;42.692;23.312;2022-12-29T10:15:56;96032.06;;;10.22;69.31
11124;BME280;5616;42.692;23.312;2022-12-29T10:18:41;96025.75;;;10.16;69.29
11124;BME280;5616;42.692;23.312;2022-12-29T10:21:22;96026.59;;;10.33;68.05
11124;BME280;5616;42.692;23.312;2022-12-29T10:23:53;96026.91;;;10.22;68.49
11124;BME280;5616;42.692;23.312;2022-12-29T10:26:23;96023.59;;;10.46;67.74
11124;BME280;5616;42.692;23.312;2022-12-29T10:28:55;96020.03;;;10.47;68.30
11124;BME280;5616;42.692;23.312;2022-12-29T10:31:27;96010.56;;;10.63;67.95
11124;BME280;5616;42.692;23.312;2022-12-29T10:33:58;96015.28;;;10.92;67.13
11124;BME280;5616;42.692;23.312;2022-12-29T10:36:33;96013.88;;;11.14;66.43
11124;BME280;5616;42.692;23.312;2022-12-29T10:39:05;96012.25;;;11.21;65.46
11124;BME280;5616;42.692;23.312;2022-12-29T10:41:40;96008.66;;;11.38;65.33
11124;BME280;5616;42.692;23.312;2022-12-29T10:44:11;96007.53;;;11.48;65.16
11124;BME280;5616;42.692;23.312;2022-12-29T10:46:40;96002.34;;;11.48;64.34
11124;BME280;5616;42.692;23.312;2022-12-29T10:49:14;95997.19;;;11.48;64.29
11124;BME280;5616;42.692;23.312;2022-12-29T10:51:46;95991.53;;;11.45;64.51
11124;BME280;5616;42.692;23.312;2022-12-29T10:54:21;95990.56;;;11.38;64.89
11124;BME280;5616;42.692;23.312;2022-12-29T10:56:52;95993.50;;;11.19;65.48
11124;BME280;5616;42.692;23.312;2022-12-29T10:59:22;95984.94;;;11.18;65.82
11124;BME280;5616;42.692;23.312;2022-12-29T11:01:56;95986.06;;;11.16;65.44
11124;BME280;5616;42.692;23.312;2022-12-29T11:04:40;95978.47;;;11.14;65.91
11124;BME280;5616;42.692;23.312;2022-12-29T11:07:11;95978.94;;;11.18;66.16
11124;BME280;5616;42.692;23.312;2022-12-29T11:09:40;95977.00;;;11.20;66.05
11124;BME280;5616;42.692;23.312;2022-12-29T11:12:24;95955.53;;;11.27;66.16
11124;BME280;5616;42.692;23.312;2022-12-29T11:15:06;95966.66;;;11.28;66.68
11124;BME280;5616;42.692;23.312;2022-12-29T11:17:43;95963.13;;;11.21;66.65
11124;BME280;5616;42.692;23.312;2022-12-29T11:20:31;95965.72;;;11.21;66.16
11124;BME280;5616;42.692;23.312;2022-12-29T11:23:00;95968.47;;;11.19;66.06
11124;BME280;5616;42.692;23.312;2022-12-29T11:25:28;95965.06;;;11.27;66.00
11124;BME280;5616;42.692;23.312;2022-12-29T11:27:56;95966.53;;;11.13;66.76
11124;BME280;5616;42.692;23.312;2022-12-29T11:30:24;95960.53;;;11.21;66.92
11124;BME280;5616;42.692;23.312;2022-12-29T11:32:54;95954.72;;;11.27;66.67
11124;BME280;5616;42.692;23.312;2022-12-29T11:35:33;95962.63;;;11.17;66.29
11124;BME280;5616;42.692;23.312;2022-12-29T11:38:02;95957.00;;;11.14;66.60
11124;BME280;5616;42.692;23.312;2022-12-29T11:40:31;95952.59;;;11.14;67.17
11124;BME280;5616;42.692;23.312;2022-12-29T11:43:01;95943.25;;;11.13;66.81
11124;BME280;5616;42.692;23.312;2022-12-29T11:45:30;95942.75;;;11.18;67.76
11124;BME280;5616;42.692;23.312;2022-12-29T11:48:01;95943.06;;;11.23;67.86
11124;BME280;5616;42.692;23.312;2022-12-29T11:50:34;95954.06;;;11.25;67.64
11124;BME280;5616;42.692;23.312;2022-12-29T11:53:06;95944.69;;;11.32;66.76
11124;BME280;5616;42.692;23.312;2022-12-29T11:55:36;95934.69;;;11.29;66.49
11124;BME280;5616;42.692;23.312;2022-12-29T11:58:04;95944.06;;;11.30;65.89
11124;BME280;5616;42.692;23.312;2022-12-29T12:00:34;95941.78;;;11.35;66.00
11124;BME280;5616;42.692;23.312;2022-12-29T12:03:10;95942.13;;;11.32;66.86
11124;BME280;5616;42.692;23.312;2022-12-29T12:05:41;95940.78;;;11.36;66.44
11124;BME280;5616;42.692;23.312;2022-12-29T12:08:18;95940.16;;;11.34;65.90
11124;BME280;5616;42.692;23.312;2022-12-29T12:10:52;95935.50;;;11.29;65.90
11124;BME280;5616;42.692;23.312;2022-12-29T12:13:26;95930.63;;;11.34;66.37
11124;BME280;5616;42.692;23.312;2022-12-29T12:15:59;95929.19;;;11.32;65.83
11124;BME280;5616;42.692;23.312;2022-12-29T12:18:41;95932.91;;;11.37;65.92
11124;BME280;5616;42.692;23.312;2022-12-29T12:21:18;95918.66;;;11.41;66.41
11124;BME280;5616;42.692;23.312;2022-12-29T12:24:04;95925.13;;;11.45;66.71
11124;BME280;5616;42.692;23.312;2022-12-29T12:26:39;95924.31;;;11.45;66.70
11124;BME280;5616;42.692;23.312;2022-12-29T12:29:13;95918.31;;;11.44;66.06
11124;BME280;5616;42.692;23.312;2022-12-29T12:31:47;95912.97;;;11.46;65.33
11124;BME280;5616;42.692;23.312;2022-12-29T12:34:20;95913.50;;;11.25;66.26
11124;BME280;5616;42.692;23.312;2022-12-29T12:37:06;95911.75;;;11.18;66.60
11124;BME280;5616;42.692;23.312;2022-12-29T12:39:47;95914.19;;;11.27;66.15
11124;BME280;5616;42.692;23.312;2022-12-29T12:42:25;95918.22;;;11.22;67.07
11124;BME280;5616;42.692;23.312;2022-12-29T12:45:16;95914.00;;;11.29;67.29
11124;BME280;5616;42.692;23.312;2022-12-29T12:47:58;95909.78;;;11.36;66.86
11124;BME280;5616;42.692;23.312;2022-12-29T12:50:43;95907.50;;;11.41;66.26
11124;BME280;5616;42.692;23.312;2022-12-29T12:53:22;95910.56;;;11.44;66.35
11124;BME280;5616;42.692;23.312;2022-12-29T12:56:07;95907.81;;;11.46;66.33
11124;BME280;5616;42.692;23.312;2022-12-29T12:58:47;95912.00;;;11.47;66.66
11124;BME280;5616;42.692;23.312;2022-12-29T13:01:28;95912.03;;;11.39;67.88
11124;BME280;5616;42.692;23.312;2022-12-29T13:04:15;95906.03;;;11.38;67.76
11124;BME280;5616;42.692;23.312;2022-12-29T13:06:51;95908.19;;;11.35;67.87
11124;BME280;5616;42.692;23.312;2022-12-29T13:09:31;95910.91;;;11.33;67.98
11124;BME280;5616;42.692;23.312;2022-12-29T13:12:15;95917.06;;;11.32;68.04
11124;BME280;5616;42.692;23.312;2022-12-29T13:14:57;95916.91;;;11.26;67.99
11124;BME280;5616;42.692;23.312;2022-12-29T13:17:34;95909.78;;;11.20;68.16
11124;BME280;5616;42.692;23.312;2022-12-29T13:20:10;95906.91;;;11.15;67.79
11124;BME280;5616;42.692;23.312;2022-12-29T13:22:47;95905.44;;;11.20;68.37
11124;BME280;5616;42.692;23.312;2022-12-29T13:25:25;95912.88;;;11.15;68.96
11124;BME280;5616;42.692;23.312;2022-12-29T13:28:00;95921.44;;;11.16;68.68
11124;BME280;5616;42.692;23.312;2022-12-29T13:30:34;95915.78;;;11.12;68.58
11124;BME280;5616;42.692;23.312;2022-12-29T13:33:10;95919.38;;;10.87;69.94
11124;BME280;5616;42.692;23.312;2022-12-29T13:35:53;95918.56;;;10.78;70.47
11124;BME280;5616;42.692;23.312;2022-12-29T13:38:24;95915.97;;;10.86;70.32
11124;BME280;5616;42.692;23.312;2022-12-29T13:40:55;95917.59;;;10.95;70.46
11124;BME280;5616;42.692;23.312;2022-12-29T13:43:26;95923.56;;;10.96;69.86